Dublin, CA (94568)

6:12 PM PDT on August 20, 2014 (GMT -0700)
KCADUBLI8 | Change Station
CLOSE
Current Station
Personal Weather Station
Location: Dublin, CA
Elevation: 338 ft
Nearby Weather Stations

Elev 338 ft 37.71 °N, 121.92 °W | Updated 41 seconds ago

Clear
Clear
71.8 °F
Feels Like 76 °F
N
4.9
Wind Variable Wind from WSW
Gusts 12.1 mph

Today
High -- | Low -- °F
--% Chance of Precip.
Yesterday
High -- | Low -- °F
Precip. -- in
6:27 AM 7:53 PM
Waning Crescent, 18% visible
Pressure 29.85 in
Visibility 10.0 miles
Clouds Clear
Heat Index 76 °F
Dew Point 59 °F
Humidity 64%
Rainfall 0.00 in
Snow Depth Not available.
UV 2 out of 12
Pollen 4.90 out of 12
Ozone Good
PM2.5 Good
Flu Activity Not available.
METAR KLVK 210053Z 29015KT 10SM CLR 23/13 A2985 RMK AO2 SLP106 T02330133

More Conditions Fewer Conditions

Pressure 29.85 in
Visibility 10.0 miles
Clouds Clear
Heat Index 76 °F
Dew Point 59 °F
Humidity 64%
Rainfall 0.00 in
Snow Depth Not available.
UV 2 out of 12
Pollen 4.90 out of 12
Ozone Good
PM2.5 Good
Flu Activity Not available.
METAR KLVK 210053Z 29015KT 10SM CLR 23/13 A2985 RMK AO2 SLP106 T02330133

More Conditions Fewer Conditions

10-Day Weather Forecast

Almanac

Astronomy

Aug. 20, 2014 Rise Set
Actual Time 6:27 AM PDT 7:53 PM PDT
Civil Twilight 6:00 AM PDT 8:21 PM PDT
Nautical Twilight 5:27 AM PDT 8:54 PM PDT
Astronomical Twilight 4:52 AM PDT 9:28 PM PDT
Moon 2:14 AM PDT (8/20) 4:40 PM PDT (8/20)
Length of Visible Light 14h 21m
Length of Day
13h 26m
Tomorrow will be 2m 12s shorter.
Waning Crescent, 18% of the Moon is Illuminated
Today
Waning Crescent
Aug 25
New
Sep 2
First Quarter
Sep 8
Full
Sep 15
Last Quarter

Today's Extremes

State Highs State Lows

Community

WunderPhotos

Upload Photos

1,745,823 photos uploaded!

WunderBlogs® & News

Nearby

Air Quality

  Air Quality AQ Index Pollutant
Yesterday Good
OZONE
Yesterday Good
PM2.5
Current Good
OZONE
Current Good
PM2.5
Wednesday Good
OZONE
Thursday Good
OZONE
Friday Good
OZONE
Saturday Good
OZONE
Sunday Good
OZONE
Monday Good
OZONE

Snow Depth

Station Depth Elevation
Leavitt Lake 0 in 9400 ft
Leavitt Meadows 0 in 7200 ft
Summit Meadow 0 in 9122 ft
Adin Mountain 0 in 6200 ft
Cedar Pass 0 in 7100 ft

Earthquake Activity

City Distance Mag. Time & Date
King City, California 113 miles 2.7 10:26 PM PDT
2014-08-15
Kettleman City, California 155 miles 2.9 11:32 PM PDT
2014-08-14
King City, California 113 miles 2.9 8:01 PM PDT
2014-08-14
Mariposa, California 109 miles 2.5 4:54 AM PDT
2014-08-14
Minimum magnitude displayed is 2.5.

Coastal Water Temperatures

Place Temperature
No Stations Reporting

Nearby Weather Stations